createdAt,value
2023-08-22T00:01:55.317Z,45.69
2023-08-22T00:04:44.452Z,44.13
2023-08-22T00:07:32.209Z,44.49
2023-08-22T00:10:21.455Z,44.14
2023-08-22T00:13:09.228Z,43.36
2023-08-22T00:16:00.660Z,44.90
2023-08-22T00:18:48.454Z,44.11
2023-08-22T00:21:36.118Z,43.95
2023-08-22T00:24:24.876Z,43.97
2023-08-22T00:27:13.960Z,43.97
2023-08-22T00:30:01.792Z,43.69
2023-08-22T00:32:49.601Z,44.47
2023-08-22T00:35:37.355Z,44.35
2023-08-22T00:38:25.015Z,44.17
2023-08-22T00:41:12.624Z,44.51
2023-08-22T00:44:01.764Z,45.32
2023-08-22T00:46:49.921Z,44.51
2023-08-22T00:49:38.008Z,46.38
2023-08-22T00:52:26.010Z,44.39
2023-08-22T00:55:14.696Z,43.93
2023-08-22T00:58:03.156Z,46.41
2023-08-22T01:00:52.197Z,44.93
2023-08-22T01:03:40.323Z,45.57
2023-08-22T01:06:35.572Z,44.82
2023-08-22T01:09:29.752Z,45.72
2023-08-22T01:12:23.776Z,45.58
2023-08-22T01:15:22.340Z,46.09
2023-08-22T01:18:14.699Z,46.07
2023-08-22T01:21:06.798Z,45.64
2023-08-22T01:23:55.881Z,45.35
2023-08-22T01:26:43.600Z,45.57
2023-08-22T01:29:37.964Z,47.16
2023-08-22T01:32:30.148Z,44.83
2023-08-22T01:35:23.319Z,45.61
2023-08-22T01:38:13.241Z,45.99
2023-08-22T01:41:04.190Z,47.08
2023-08-22T01:43:52.377Z,45.78
2023-08-22T01:46:40.050Z,45.22
2023-08-22T01:49:28.026Z,45.31
2023-08-22T01:52:15.758Z,46.07
2023-08-22T01:55:04.891Z,46.34
2023-08-22T01:57:53.991Z,46.96
2023-08-22T02:00:41.636Z,45.51
2023-08-22T02:03:29.401Z,45.75
2023-08-22T02:06:17.131Z,46.16
2023-08-22T02:09:06.385Z,46.19
2023-08-22T02:11:54.411Z,46.71
2023-08-22T02:14:43.433Z,47.19
2023-08-22T02:17:31.206Z,48.84
2023-08-22T02:20:19.753Z,47.23
2023-08-22T02:23:08.722Z,46.91
2023-08-22T02:25:56.405Z,47.61
2023-08-22T02:28:44.116Z,48.59
2023-08-22T02:31:33.246Z,47.80
2023-08-22T02:34:21.001Z,47.57
2023-08-22T02:37:08.655Z,47.93
2023-08-22T02:39:57.147Z,47.64
2023-08-22T02:42:45.982Z,47.35
2023-08-22T02:45:33.691Z,48.09
2023-08-22T02:48:22.772Z,47.21
2023-08-22T02:51:10.543Z,47.14
2023-08-22T02:53:58.222Z,47.62
2023-08-22T02:56:45.923Z,47.99
2023-08-22T02:59:33.665Z,51.35
2023-08-22T03:02:21.391Z,49.15
2023-08-22T03:05:12.952Z,48.59
2023-08-22T03:08:00.957Z,49.09
2023-08-22T03:10:48.549Z,49.48
2023-08-22T03:13:37.080Z,49.34
2023-08-22T03:16:24.818Z,49.44
2023-08-22T03:19:12.498Z,49.83
2023-08-22T03:22:01.828Z,50.30
2023-08-22T03:24:49.521Z,49.73
2023-08-22T03:27:37.396Z,49.70
2023-08-22T03:30:25.473Z,49.73
2023-08-22T03:33:13.100Z,49.95
2023-08-22T03:36:01.494Z,50.24
2023-08-22T03:38:52.452Z,50.39
2023-08-22T03:41:40.279Z,50.03
2023-08-22T03:44:28.017Z,50.40
2023-08-22T03:47:15.661Z,49.74
2023-08-22T03:50:03.450Z,50.07
2023-08-22T03:52:51.092Z,50.71
2023-08-22T03:55:40.411Z,50.83
2023-08-22T03:58:28.120Z,50.93
2023-08-22T04:01:15.912Z,50.64
2023-08-22T04:04:03.626Z,51.66
2023-08-22T04:06:51.287Z,50.47
2023-08-22T04:09:39.145Z,51.11
2023-08-22T04:12:28.346Z,49.83
2023-08-22T04:15:16.783Z,50.96
2023-08-22T04:18:04.724Z,50.98
2023-08-22T04:20:52.381Z,50.27
2023-08-22T04:23:40.096Z,50.10
2023-08-22T04:26:27.806Z,51.37
2023-08-22T04:29:17.294Z,51.46
2023-08-22T04:32:05.084Z,51.02
2023-08-22T04:34:52.817Z,51.57
2023-08-22T04:37:40.888Z,51.61
2023-08-22T04:40:28.816Z,51.65
2023-08-22T04:43:16.473Z,51.20
2023-08-22T04:46:05.512Z,51.79
2023-08-22T04:48:53.243Z,51.74
2023-08-22T04:51:40.948Z,51.73
2023-08-22T04:54:28.749Z,52.10
2023-08-22T04:57:16.434Z,51.51
2023-08-22T05:00:05.198Z,51.50
2023-08-22T05:02:56.835Z,51.28
2023-08-22T05:05:44.935Z,51.30
2023-08-22T05:08:33.088Z,51.01
2023-08-22T05:11:20.814Z,50.02
2023-08-22T05:14:08.787Z,49.91
2023-08-22T05:16:56.578Z,50.08
2023-08-22T05:19:45.762Z,49.01
2023-08-22T05:22:33.429Z,49.17
2023-08-22T05:25:21.291Z,48.56
2023-08-22T05:28:09.587Z,48.29
2023-08-22T05:30:57.564Z,47.96
2023-08-22T05:33:45.533Z,47.21
2023-08-22T05:36:36.510Z,47.32
2023-08-22T05:39:24.286Z,47.19
2023-08-22T05:42:12.043Z,47.10
2023-08-22T05:44:59.731Z,46.19
2023-08-22T05:47:47.495Z,46.25
2023-08-22T05:50:35.622Z,47.38
2023-08-22T05:53:25.248Z,45.96
2023-08-22T05:56:13.136Z,46.55
2023-08-22T05:59:01.106Z,46.47
2023-08-22T06:01:48.901Z,46.32
2023-08-22T06:04:36.771Z,45.67
2023-08-22T06:07:24.647Z,45.84
2023-08-22T06:10:13.900Z,45.90
2023-08-22T06:13:01.716Z,44.91
2023-08-22T06:15:49.776Z,44.74
2023-08-22T06:18:37.479Z,45.06
2023-08-22T06:21:25.325Z,45.24
2023-08-22T06:24:13.135Z,45.41
2023-08-22T06:27:02.171Z,44.75
2023-08-22T06:29:49.945Z,44.88
2023-08-22T06:32:37.631Z,44.39
2023-08-22T06:35:26.324Z,44.08
2023-08-22T06:38:13.953Z,44.32
2023-08-22T06:41:06.280Z,44.01
2023-08-22T06:43:55.356Z,43.66
2023-08-22T06:46:43.104Z,43.55
2023-08-22T06:49:31.144Z,43.64
2023-08-22T06:52:19.590Z,44.03
2023-08-22T06:55:08.395Z,42.65
2023-08-22T06:57:56.189Z,43.12
2023-08-22T07:00:45.721Z,42.55
2023-08-22T07:03:33.571Z,42.46
2023-08-22T07:06:21.288Z,42.71
2023-08-22T07:09:09.563Z,43.46
2023-08-22T07:11:57.289Z,42.37
2023-08-22T07:14:45.219Z,42.10
2023-08-22T07:17:34.408Z,41.84
2023-08-22T07:20:22.089Z,41.67
2023-08-22T07:23:09.989Z,41.83
2023-08-22T07:25:57.681Z,41.31
2023-08-22T07:28:45.699Z,41.41
2023-08-22T07:31:33.499Z,42.10
2023-08-22T07:34:22.729Z,41.34
2023-08-22T07:37:10.499Z,40.94
2023-08-22T07:39:58.465Z,41.24
2023-08-22T07:42:46.168Z,40.95
2023-08-22T07:45:33.882Z,41.22
2023-08-22T07:48:21.613Z,40.79
2023-08-22T07:51:11.256Z,40.97
2023-08-22T07:53:59.441Z,41.04
2023-08-22T07:56:47.227Z,39.97
2023-08-22T07:59:35.207Z,40.54
2023-08-22T08:02:23.129Z,40.57
2023-08-22T08:05:11.833Z,39.62
2023-08-22T08:08:01.015Z,39.14
2023-08-22T08:10:48.889Z,40.29
2023-08-22T08:13:37.029Z,40.00
2023-08-22T08:16:39.221Z,39.34
2023-08-22T08:19:29.109Z,40.10
2023-08-22T08:22:17.157Z,39.20
2023-08-22T08:25:07.122Z,39.35
2023-08-22T08:27:56.213Z,39.23
2023-08-22T08:30:44.166Z,39.35
2023-08-22T08:33:32.036Z,39.23
2023-08-22T08:36:20.031Z,38.66
2023-08-22T08:39:07.859Z,38.76
2023-08-22T08:42:05.226Z,38.71
2023-08-22T08:44:53.570Z,39.07
2023-08-22T08:47:41.594Z,39.24
2023-08-22T08:50:29.891Z,38.95
2023-08-22T08:53:17.577Z,38.63
2023-08-22T08:56:11.192Z,38.59
2023-08-22T08:59:00.755Z,39.16
2023-08-22T09:01:51.269Z,38.76
2023-08-22T09:04:40.805Z,38.44
2023-08-22T09:07:28.667Z,39.33
2023-08-22T09:10:34.582Z,38.35
2023-08-22T09:13:38.957Z,38.30
2023-08-22T09:16:37.991Z,37.82
2023-08-22T09:19:25.844Z,38.35
2023-08-22T09:22:15.661Z,38.32
2023-08-22T09:25:05.377Z,38.56
2023-08-22T09:27:53.457Z,38.17
2023-08-22T09:30:48.751Z,38.32
2023-08-22T09:33:48.287Z,36.73
2023-08-22T09:36:36.085Z,37.26
2023-08-22T09:39:25.049Z,37.78
2023-08-22T09:42:12.976Z,37.95
2023-08-22T09:45:01.187Z,37.67
2023-08-22T09:47:53.505Z,36.88
2023-08-22T09:50:45.072Z,36.43
2023-08-22T09:53:33.908Z,36.85
2023-08-22T09:56:22.317Z,37.09
2023-08-22T09:59:10.404Z,35.75
2023-08-22T10:01:59.262Z,35.80
2023-08-22T10:04:47.662Z,36.24
2023-08-22T10:07:37.245Z,35.39
2023-08-22T10:10:25.808Z,36.30
2023-08-22T10:13:14.115Z,35.60
2023-08-22T10:16:02.209Z,35.96
2023-08-22T10:19:02.710Z,35.04
2023-08-22T10:21:50.801Z,35.30
2023-08-22T10:24:40.243Z,34.02
2023-08-22T10:27:30.137Z,34.20
2023-08-22T10:30:22.290Z,33.68
2023-08-22T10:33:24.668Z,34.79
2023-08-22T10:36:18.324Z,34.24
2023-08-22T10:39:07.082Z,34.34
2023-08-22T10:41:58.630Z,34.05
2023-08-22T10:44:50.353Z,33.70
2023-08-22T10:47:38.484Z,33.94
2023-08-22T10:50:34.703Z,33.83
2023-08-22T10:53:28.402Z,34.14
2023-08-22T10:56:25.927Z,33.59
2023-08-22T10:59:14.999Z,32.97
2023-08-22T11:02:02.871Z,33.56
2023-08-22T11:04:51.622Z,33.84
2023-08-22T11:07:41.130Z,33.35
2023-08-22T11:10:29.083Z,33.17
2023-08-22T11:13:16.702Z,34.34
2023-08-22T11:16:10.102Z,34.52
2023-08-22T11:18:58.876Z,34.43
2023-08-22T11:21:46.872Z,33.14
2023-08-22T11:24:34.904Z,33.91
2023-08-22T11:27:22.734Z,33.41
2023-08-22T11:30:12.309Z,34.06
2023-08-22T11:33:01.334Z,32.87
2023-08-22T11:35:51.982Z,32.82
2023-08-22T11:38:42.287Z,33.10
2023-08-22T11:41:30.650Z,33.13
2023-08-22T11:44:18.924Z,31.93
2023-08-22T11:47:13.954Z,32.09
2023-08-22T11:50:03.943Z,31.84
2023-08-22T11:52:54.797Z,32.36
2023-08-22T11:55:48.575Z,33.21
2023-08-22T11:58:44.597Z,31.87
2023-08-22T12:01:33.612Z,32.63
2023-08-22T12:04:21.613Z,33.11
2023-08-22T12:07:10.915Z,34.29
2023-08-22T12:09:59.946Z,32.76
2023-08-22T12:12:47.807Z,32.64
2023-08-22T12:15:35.947Z,32.96
2023-08-22T12:18:30.865Z,31.05
2023-08-22T12:21:19.640Z,32.75
2023-08-22T12:24:08.949Z,32.09
2023-08-22T12:26:56.623Z,33.40
2023-08-22T12:29:46.990Z,34.34
2023-08-22T12:32:35.373Z,34.12
2023-08-22T12:35:23.123Z,33.29
2023-08-22T12:38:11.590Z,32.76
2023-08-22T12:41:02.858Z,34.02
2023-08-22T12:43:50.625Z,33.54
2023-08-22T12:46:38.364Z,31.89
2023-08-22T12:49:26.155Z,33.01
2023-08-22T12:52:14.136Z,31.13
2023-08-22T12:55:03.718Z,31.35
2023-08-22T12:57:52.908Z,31.49
2023-08-22T13:00:40.590Z,32.44
2023-08-22T13:03:28.427Z,32.75
2023-08-22T13:06:16.192Z,33.26
2023-08-22T13:09:04.338Z,35.73
2023-08-22T13:11:52.329Z,34.42
2023-08-22T13:14:41.612Z,31.44
2023-08-22T13:17:29.995Z,32.84
2023-08-22T13:20:18.302Z,32.12
2023-08-22T13:23:08.039Z,30.72
2023-08-22T13:25:56.444Z,31.10
2023-08-22T13:28:44.125Z,31.20
2023-08-22T13:31:34.377Z,31.89
2023-08-22T13:34:22.245Z,31.36
2023-08-22T13:37:09.985Z,33.10
2023-08-22T13:39:57.624Z,31.85
2023-08-22T13:42:45.490Z,32.24
2023-08-22T13:45:33.505Z,34.12
2023-08-22T13:48:23.598Z,35.57
2023-08-22T13:51:11.564Z,32.80
2023-08-22T13:54:01.095Z,32.66
2023-08-22T13:56:48.947Z,34.07
2023-08-22T13:59:38.300Z,33.22
2023-08-22T14:02:25.942Z,33.11
2023-08-22T14:05:15.275Z,34.67
2023-08-22T14:08:02.929Z,34.31
2023-08-22T14:10:50.780Z,34.03
2023-08-22T14:13:38.472Z,34.97
2023-08-22T14:16:26.172Z,34.01
2023-08-22T14:19:14.493Z,34.03
2023-08-22T14:22:03.513Z,34.43
2023-08-22T14:24:51.383Z,33.24
2023-08-22T14:27:39.110Z,33.46
2023-08-22T14:30:27.112Z,33.72
2023-08-22T14:33:14.873Z,34.66
2023-08-22T14:36:06.757Z,36.80
2023-08-22T14:38:55.783Z,34.92
2023-08-22T14:41:43.611Z,34.82
2023-08-22T14:44:31.546Z,35.47
2023-08-22T14:47:19.304Z,34.57
2023-08-22T14:50:08.222Z,34.39
2023-08-22T14:52:55.932Z,35.06
2023-08-22T14:55:57.834Z,35.11
2023-08-22T14:58:47.558Z,35.86
2023-08-22T15:01:35.479Z,35.04
2023-08-22T15:04:26.259Z,35.15
2023-08-22T15:07:14.126Z,36.52
2023-08-22T15:10:01.802Z,35.47
2023-08-22T15:12:51.957Z,34.85
2023-08-22T15:15:39.731Z,35.64
2023-08-22T15:18:28.109Z,33.65
2023-08-22T15:24:04.137Z,36.39
2023-08-22T15:26:52.143Z,36.64
2023-08-22T15:29:41.291Z,35.84
2023-08-22T15:32:29.504Z,34.12
2023-08-22T15:35:17.227Z,36.29
2023-08-22T15:38:05.062Z,35.40
2023-08-22T15:40:53.535Z,35.77
2023-08-22T15:43:41.439Z,36.97
2023-08-22T15:46:30.792Z,34.81
2023-08-22T15:49:18.454Z,34.39
2023-08-22T15:52:07.142Z,34.04
2023-08-22T15:54:55.050Z,36.41
2023-08-22T15:57:42.792Z,35.90
2023-08-22T16:00:31.571Z,36.58
2023-08-22T16:03:20.819Z,35.06
2023-08-22T16:06:08.836Z,35.12
2023-08-22T16:08:56.498Z,36.05
2023-08-22T16:11:47.115Z,38.00
2023-08-22T16:14:34.836Z,38.01
2023-08-22T16:17:22.611Z,37.65
2023-08-22T16:20:12.949Z,37.80
2023-08-22T16:23:02.699Z,38.33
2023-08-22T16:25:50.562Z,37.22
2023-08-22T16:28:38.215Z,37.43
2023-08-22T16:31:28.452Z,38.95
2023-08-22T16:34:16.502Z,38.26
2023-08-22T16:37:05.949Z,38.91
2023-08-22T16:39:53.881Z,39.32
2023-08-22T16:42:41.637Z,39.89
2023-08-22T16:45:29.612Z,39.87
2023-08-22T16:48:17.442Z,40.21
2023-08-22T16:51:05.270Z,39.55
2023-08-22T16:53:54.458Z,40.37
2023-08-22T16:56:42.064Z,41.26
2023-08-22T16:59:29.925Z,41.30
2023-08-22T17:02:17.787Z,42.40
2023-08-22T17:05:07.073Z,41.96
2023-08-22T17:07:55.035Z,42.01
2023-08-22T17:10:44.365Z,41.68
2023-08-22T17:13:32.165Z,42.26
2023-08-22T17:16:19.850Z,40.37
2023-08-22T17:19:07.618Z,39.54
2023-08-22T17:21:55.214Z,38.98
2023-08-22T17:24:43.160Z,41.02
2023-08-22T17:27:32.292Z,40.76
2023-08-22T17:30:20.861Z,40.58
2023-08-22T17:33:08.954Z,40.82
2023-08-22T17:35:56.614Z,40.25
2023-08-22T17:38:46.016Z,40.61
2023-08-22T17:41:33.934Z,38.36
2023-08-22T17:44:23.421Z,39.02
2023-08-22T17:47:11.487Z,38.85
2023-08-22T17:49:59.234Z,40.61
2023-08-22T17:52:46.908Z,38.67
2023-08-22T17:55:35.841Z,39.78
2023-08-22T17:58:24.575Z,39.35
2023-08-22T18:01:14.005Z,38.13
2023-08-22T18:04:02.626Z,39.74
2023-08-22T18:06:50.322Z,38.58
2023-08-22T18:09:38.002Z,39.29
2023-08-22T18:12:25.741Z,39.63
2023-08-22T18:15:13.471Z,41.46
2023-08-22T18:18:02.707Z,39.67
2023-08-22T18:20:50.560Z,40.42
2023-08-22T18:23:39.230Z,39.33
2023-08-22T18:26:26.882Z,41.02
2023-08-22T18:29:14.739Z,41.31
2023-08-22T18:32:02.581Z,40.47
2023-08-22T18:34:51.679Z,41.16
2023-08-22T18:37:39.963Z,40.60
2023-08-22T18:40:27.593Z,40.69
2023-08-22T18:43:15.421Z,41.66
2023-08-22T18:46:03.096Z,41.19
2023-08-22T18:48:51.229Z,42.03
2023-08-22T18:51:40.253Z,41.74
2023-08-22T18:54:27.966Z,41.81
2023-08-22T18:57:15.672Z,42.07
2023-08-22T19:00:03.345Z,42.92
2023-08-22T19:02:51.236Z,42.72
2023-08-22T19:05:38.924Z,42.50
2023-08-22T19:08:28.525Z,43.18
2023-08-22T19:11:16.355Z,42.83
2023-08-22T19:14:04.345Z,42.73
2023-08-22T19:16:52.301Z,43.86
2023-08-22T19:19:39.906Z,43.43
2023-08-22T19:22:28.003Z,44.69
2023-08-22T19:25:17.088Z,44.06
2023-08-22T19:28:05.416Z,43.96
2023-08-22T19:30:56.730Z,43.99
2023-08-22T19:33:45.773Z,44.88
2023-08-22T19:36:34.779Z,44.53
2023-08-22T19:39:22.527Z,44.51
2023-08-22T19:42:11.775Z,44.86
2023-08-22T19:45:00.107Z,45.51
2023-08-22T19:47:48.527Z,44.89
2023-08-22T19:50:36.407Z,46.46
2023-08-22T19:53:24.133Z,47.36
2023-08-22T19:56:11.852Z,46.81
2023-08-22T19:59:00.907Z,47.06
2023-08-22T20:01:48.777Z,46.66
2023-08-22T20:04:36.642Z,47.91
2023-08-22T20:07:24.640Z,47.71
2023-08-22T20:10:12.609Z,47.89
2023-08-22T20:13:00.747Z,48.43
2023-08-22T20:15:50.300Z,48.04
2023-08-22T20:18:38.065Z,48.62
2023-08-22T20:21:26.482Z,50.62
2023-08-22T20:24:15.888Z,51.24
2023-08-22T20:27:05.452Z,52.27
2023-08-22T20:29:53.176Z,54.95
2023-08-22T20:32:42.485Z,55.74
2023-08-22T20:35:30.284Z,56.69
2023-08-22T20:38:17.997Z,57.46
2023-08-22T20:41:05.769Z,59.35
2023-08-22T20:43:53.440Z,59.94
2023-08-22T20:46:41.280Z,60.01
2023-08-22T20:49:30.346Z,58.53
2023-08-22T20:52:18.276Z,58.52
2023-08-22T20:55:06.897Z,59.08
2023-08-22T20:57:54.697Z,60.27
2023-08-22T21:00:42.454Z,60.60
2023-08-22T21:03:30.323Z,60.61
2023-08-22T21:06:19.491Z,61.94
2023-08-22T21:09:07.163Z,60.36
2023-08-22T21:12:01.376Z,60.53
2023-08-22T21:14:48.845Z,59.99
2023-08-22T21:17:36.621Z,61.05
2023-08-22T21:20:24.318Z,61.12
2023-08-22T21:23:13.665Z,61.73
2023-08-22T21:26:02.248Z,61.32
2023-08-22T21:28:49.945Z,60.90
2023-08-22T21:31:38.039Z,61.76
2023-08-22T21:34:25.780Z,62.84
2023-08-22T21:37:13.450Z,63.29
2023-08-22T21:40:02.554Z,63.96
2023-08-22T21:42:50.232Z,64.05
2023-08-22T21:45:38.103Z,63.93
2023-08-22T21:48:25.825Z,63.94
2023-08-22T21:51:13.728Z,64.67
2023-08-22T21:54:01.333Z,64.01
2023-08-22T21:56:50.668Z,62.64
2023-08-22T21:59:38.392Z,62.25
2023-08-22T22:02:26.278Z,60.83
2023-08-22T22:05:14.054Z,60.74
2023-08-22T22:08:01.757Z,61.47
2023-08-22T22:10:53.306Z,62.23
2023-08-22T22:13:42.269Z,61.85
2023-08-22T22:16:42.964Z,62.47
2023-08-22T22:19:32.507Z,62.73
2023-08-22T22:22:20.294Z,62.89
2023-08-22T22:25:09.359Z,63.53
2023-08-22T22:27:57.226Z,62.44
2023-08-22T22:30:46.546Z,61.48
2023-08-22T22:33:34.224Z,60.86
2023-08-22T22:36:22.127Z,60.50
2023-08-22T22:39:10.681Z,60.75
2023-08-22T22:41:58.403Z,60.77
2023-08-22T22:44:46.893Z,60.59
2023-08-22T22:47:36.274Z,60.49
2023-08-22T22:50:24.081Z,60.58
2023-08-22T22:53:11.773Z,59.94
2023-08-22T22:55:59.748Z,60.08
2023-08-22T22:58:47.577Z,59.86
2023-08-22T23:01:35.322Z,60.55
2023-08-22T23:04:24.745Z,60.94
2023-08-22T23:07:12.935Z,61.75
2023-08-22T23:10:00.695Z,61.00
2023-08-22T23:12:49.411Z,61.18
2023-08-22T23:15:37.165Z,60.58
2023-08-22T23:18:25.047Z,59.90
2023-08-22T23:21:14.124Z,59.03
2023-08-22T23:24:02.109Z,60.39
2023-08-22T23:26:49.864Z,60.19
2023-08-22T23:29:37.781Z,60.61
2023-08-22T23:32:28.347Z,61.22
2023-08-22T23:35:16.118Z,61.31
2023-08-22T23:38:06.136Z,61.16
2023-08-22T23:40:53.889Z,60.82
2023-08-22T23:43:41.895Z,60.20
2023-08-22T23:46:29.616Z,59.54
2023-08-22T23:49:17.618Z,60.59
2023-08-22T23:52:05.873Z,59.83
2023-08-22T23:54:55.012Z,59.32
2023-08-22T23:57:42.881Z,59.19
